Share

Miles City, MT

Jordan (KJDN) Elev 2661 ft | 47.33 °N, 106.95 °W | Change Station

Current weather conditions updated 52 minutes ago

Thunderstorm
Thunderstorm
51 °F
Feels Like 51 °F
N
9
Wind Variable Wind from South
Gusts 17 mph
Sunrise 6:10 AM
Sunset 7:55 PM
Moon Waning Gibbous

Tomorrow is forecast to be nearly the same temperature as today.

Pressure 29.68 in
Visibility -9999.0 miles
Clouds
Dew Point 46 °F
Humidity 83%
Rainfall 0.05 in
Snow Depth Not available.
UV Not available.
Pollen 9.20 out of 12
Air Quality Not available.
Flu Activity Sporadic
METAR KJDN 182148Z AUTO 18008KT 11/08 A2965 RMK AO1 SLP048 P0001 T01060078

More Conditions Fewer Conditions

Pressure 29.68 in
Visibility -9999.0 miles
Clouds
Dew Point 46 °F
Humidity 83%
Rainfall 0.05 in
Snow Depth Not available.
UV Not available.
Pollen 9.20 out of 12
Air Quality Not available.
Flu Activity Sporadic
METAR KJDN 182148Z AUTO 18008KT 11/08 A2965 RMK AO1 SLP048 P0001 T01060078

More Conditions Fewer Conditions

10-Day Weather Forecast

Almanac

Astronomy

Apr. 18, 2014 Rise Set
Actual Time 6:10 AM MDT 7:55 PM MDT
Civil Twilight 5:39 AM MDT 8:27 PM MDT
Nautical Twilight 5:00 AM MDT 9:06 PM MDT
Astronomical Twilight 4:18 AM MDT 9:48 PM MDT
Moon 11:51 PM MDT 8:27 AM MDT
Length of Visible Light 14h 47m
Length of Day
13h 44m
Tomorrow will be 3m 8s longer.
Waning Gibbous, 85% of the Moon is Illuminated
Today
Waning Gibbous
Apr 22
Last Quarter
Apr 29
New
May 6
First Quarter
May 14
Full

Today's Extremes

State Highs State Lows

Community

  • Spring Chickadee
    Spring Chickadee
  • What's for Lunch?
    What's for Lunch?
  • SUNRISE THROUGH THE TREES.
    SUNRISE THROUGH THE TREES.
  • Dog Wood Blossoms
    Dog Wood Blossoms
  • Morning Light
    Morning Light

WunderPhotos

Upload Photos

1,702,528 photos uploaded!

WunderBlogs® & News

Nearby

Snow Depth

Station Depth Elevation
Crystal Lake 56 in 6050 ft
Cole Creek 78 in 7850 ft
Burnt Mountain 28 in 5880 ft
Daisy Peak 50 in 7600 ft
Placer Basin 83 in 8830 ft

Coastal Water Temperatures

Place Temperature
No Stations Reporting

Earthquake Activity

City Distance Mag. Time & Date
No recent earthquake activity has been reported nearby.
Minimum magnitude displayed is 2.5.

Nearby Weather Stations

Station Location Temp. Dew Point Humidity Wind Precip. Elev Updated Type
HADS YELLOWSTONE RIVER AT HIGHWAY BRI MT, Miles City, MT 62 °F - - North  at  - 0.00 in / hr 2333 ft 3:00 PM MDT MADIS
MesoWest Government Hill , Miles City, MT 57 °F 39 °F 50% NW  at  20 mph 0.00 in / hr 3129 ft 3:36 PM MDT MADIS
MesoWest Sweeney Creek I-94 MP 112.6 , Hathaway, MT 56 °F 41 °F 57% South  at  16 mph 0.00 in / hr 2598 ft 3:11 PM MDT MADIS

Show More Stations Show Fewer Stations

What do you think?

We're not finished. Please let us know what you like, what you don't like, and what you are still missing.